地図

経路データ

SID SEASON NUMBER BASIN SUBBASIN NAME ISO_TIME NATURE LAT LON WMO_WIND WMO_PRES WMO_AGENCY TRACK_TYPE DIST2LAND LANDFALL IFLAG USA_AGENCY USA_ATCF_ID USA_LAT USA_LON USA_RECORD USA_STATUS USA_WIND USA_PRES USA_SSHS USA_R34_NE USA_R34_SE USA_R34_SW USA_R34_NW USA_R50_NE USA_R50_SE USA_R50_SW USA_R50_NW USA_R64_NE USA_R64_SE USA_R64_SW USA_R64_NW USA_POCI USA_ROCI USA_RMW USA_EYE TOKYO_LAT TOKYO_LON TOKYO_GRADE TOKYO_WIND TOKYO_PRES TOKYO_R50_DIR TOKYO_R50_LONG TOKYO_R50_SHORT TOKYO_R30_DIR TOKYO_R30_LONG TOKYO_R30_SHORT TOKYO_LAND CMA_LAT CMA_LON CMA_CAT CMA_WIND CMA_PRES HKO_LAT HKO_LON HKO_CAT HKO_WIND HKO_PRES NEWDELHI_LAT NEWDELHI_LON NEWDELHI_GRADE NEWDELHI_WIND NEWDELHI_PRES NEWDELHI_CI NEWDELHI_DP NEWDELHI_POCI REUNION_LAT REUNION_LON REUNION_TYPE REUNION_WIND REUNION_PRES REUNION_TNUM REUNION_CI REUNION_RMW REUNION_R34_NE REUNION_R34_SE REUNION_R34_SW REUNION_R34_NW REUNION_R50_NE REUNION_R50_SE REUNION_R50_SW REUNION_R50_NW REUNION_R64_NE REUNION_R64_SE REUNION_R64_SW REUNION_R64_NW BOM_LAT BOM_LON BOM_TYPE BOM_WIND BOM_PRES BOM_TNUM BOM_CI BOM_RMW BOM_R34_NE BOM_R34_SE BOM_R34_SW BOM_R34_NW BOM_R50_NE BOM_R50_SE BOM_R50_SW BOM_R50_NW BOM_R64_NE BOM_R64_SE BOM_R64_SW BOM_R64_NW BOM_ROCI BOM_POCI BOM_EYE BOM_POS_METHOD BOM_PRES_METHOD NADI_LAT NADI_LON NADI_CAT NADI_WIND NADI_PRES WELLINGTON_LAT WELLINGTON_LON WELLINGTON_WIND WELLINGTON_PRES DS824_LAT DS824_LON DS824_STAGE DS824_WIND DS824_PRES TD9636_LAT TD9636_LON TD9636_STAGE TD9636_WIND TD9636_PRES TD9635_LAT TD9635_LON TD9635_WIND TD9635_PRES TD9635_ROCI NEUMANN_LAT NEUMANN_LON NEUMANN_CLASS NEUMANN_WIND NEUMANN_PRES MLC_LAT MLC_LON MLC_CLASS MLC_WIND MLC_PRES USA_GUST BOM_GUST BOM_GUST_PER REUNION_GUST REUNION_GUST_PER USA_SEAHGT USA_SEARAD_NE USA_SEARAD_SE USA_SEARAD_SW USA_SEARAD_NW STORM_SPEED STORM_DIR
1995148N07150 1995 25 WP MM DEANNA 1995-05-28 00:00:00 NR 7.30000 149.800 main 1086 1086 O_____________ jtwc_wp WP031995 7.30000 149.800 15 -1 14 313
1995148N07150 1995 25 WP MM DEANNA 1995-05-28 03:00:00 NR 7.77265 149.295 main 1129 1127 P_____________ WP031995 7.77265 149.295 17 -1 13 312
1995148N07150 1995 25 WP MM DEANNA 1995-05-28 06:00:00 NR 8.20000 148.800 main 1164 1163 O_____________ jtwc_wp WP031995 8.20000 148.800 20 -1 12 309
1995148N07150 1995 25 WP MM DEANNA 1995-05-28 09:00:00 NR 8.54487 148.315 main 1191 1191 P_____________ WP031995 8.54487 148.315 20 -1 12 301
1995148N07150 1995 25 WP MM DEANNA 1995-05-28 12:00:00 NR 8.80000 147.800 main 1222 1221 O_____________ jtwc_wp WP031995 8.80000 147.800 20 -1 12 291
1995148N07150 1995 25 WP MM DEANNA 1995-05-28 15:00:00 NR 8.96497 147.215 main 1243 1243 P_____________ WP031995 8.96497 147.215 20 -1 12 284
1995148N07150 1995 25 WP MM DEANNA 1995-05-28 18:00:00 NR 9.10000 146.600 main 1255 1255 O_____________ jtwc_wp WP031995 9.10000 146.600 20 -1 13 286
1995148N07150 1995 25 WP MM DEANNA 1995-05-28 21:00:00 NR 9.30744 145.993 main 1279 1279 P_____________ WP031995 9.30744 145.993 20 -1 13 289
1995148N07150 1995 25 WP MM DEANNA 1995-05-29 00:00:00 NR 9.50000 145.400 main 1306 1306 O_____________ jtwc_wp WP031995 9.50000 145.400 20 -1 12 286
1995148N07150 1995 25 WP MM DEANNA 1995-05-29 03:00:00 NR 9.62221 144.872 main 1324 1324 P_____________ WP031995 9.62221 144.872 20 -1 11 280
1995148N07150 1995 25 WP MM DEANNA 1995-05-29 06:00:00 NR 9.70000 144.300 main 1346 1346 O_____________ jtwc_wp WP031995 9.70000 144.300 20 -1 13 277
1995148N07150 1995 25 WP MM DEANNA 1995-05-29 09:00:00 NR 9.77256 143.573 main 1374 1374 P_____________ WP031995 9.77256 143.573 20 -1 15 274
1995148N07150 1995 25 WP MM DEANNA 1995-05-29 12:00:00 NR 9.80000 142.800 main 1375 1352 O_____________ jtwc_wp WP031995 9.80000 142.800 20 -1 14 270
1995148N07150 1995 25 WP MM DEANNA 1995-05-29 15:00:00 NR 9.77216 142.115 main 1348 1314 P_____________ WP031995 9.77216 142.115 20 -1 14 266
1995148N07150 1995 25 WP MM DEANNA 1995-05-29 18:00:00 NR 9.70000 141.400 main 1314 1276 O_____________ jtwc_wp WP031995 9.70000 141.400 20 -1 16 264
1995148N07150 1995 25 WP MM DEANNA 1995-05-29 21:00:00 NR 9.60765 140.542 main 1271 1228 P_____________ WP031995 9.60765 140.542 20 -1 17 263
1995148N07150 1995 25 WP MM DEANNA 1995-05-30 00:00:00 NR 9.50000 139.700 main 1228 1196 O_____________ jtwc_wp WP031995 9.50000 139.700 20 -1 15 262
1995148N07150 1995 25 WP MM DEANNA 1995-05-30 03:00:00 NR 9.40720 139.020 main 1192 1162 P_____________ WP031995 9.40720 139.020 20 -1 13 261
1995148N07150 1995 25 WP MM DEANNA 1995-05-30 06:00:00 NR 9.30000 138.400 main 1162 1135 O_____________ jtwc_wp WP031995 9.30000 138.400 20 -1 13 258
1995148N07150 1995 25 WP MM DEANNA 1995-05-30 09:00:00 NR 9.14989 137.750 main 1124 1099 P_____________ WP031995 9.14989 137.750 20 -1 13 257
1995148N07150 1995 25 WP MM DEANNA 1995-05-30 12:00:00 NR 9.00000 137.100 main 1099 1080 O_____________ jtwc_wp WP031995 9.00000 137.100 20 -1 13 259
1995148N07150 1995 25 WP MM DEANNA 1995-05-30 15:00:00 NR 8.89231 136.465 main 1080 1020 P_____________ WP031995 8.89231 136.465 20 -1 13 261
1995148N07150 1995 25 WP MM DEANNA 1995-05-30 18:00:00 NR 8.80000 135.800 main 1020 942 O_____________ jtwc_wp WP031995 8.80000 135.800 20 -1 14 261
1995148N07150 1995 25 WP MM DEANNA 1995-05-30 21:00:00 NR 8.66998 135.057 main 942 854 P_____________ WP031995 8.66998 135.057 20 -1 15 262
1995148N07150 1995 25 WP MM DEANNA 1995-05-31 00:00:00 NR 8.60000 134.300 main 854 788 O_____________ jtwc_wp WP031995 8.60000 134.300 20 -1 14 270
1995148N07150 1995 25 WP MM DEANNA 1995-05-31 03:00:00 NR 8.66220 133.615 main 779 704 P_____________ WP031995 8.66220 133.615 20 -1 14 278
1995148N07150 1995 25 WP MM DEANNA 1995-05-31 06:00:00 NR 8.80000 132.900 main 704 620 O_____________ jtwc_wp WP031995 8.80000 132.900 20 -1 16 280
1995148N07150 1995 25 WP MM DEANNA 1995-05-31 09:00:00 NR 8.95018 132.035 main 612 530 P_____________ WP031995 8.95018 132.035 20 -1 17 280
1995148N07150 1995 25 WP MM DEANNA 1995-05-31 12:00:00 NR 9.10000 131.200 main 530 471 O_____________ jtwc_wp WP031995 9.10000 131.200 20 -1 15 279
1995148N07150 1995 25 WP MM DEANNA 1995-05-31 15:00:00 NR 9.18469 130.562 main 471 410 P_____________ WP031995 9.18469 130.562 20 -1 12 280
1995148N07150 1995 25 WP MM DEANNA 1995-05-31 18:00:00 NR 9.30000 130.000 main 410 349 O_____________ jtwc_wp WP031995 9.30000 130.000 20 -1 12 287
1995148N07150 1995 25 WP MM DEANNA 1995-05-31 21:00:00 NR 9.53494 129.393 main 349 327 P_____________ WP031995 9.53494 129.393 22 -1 11 306
1995148N07150 1995 25 WP MM DEANNA 1995-06-01 00:00:00 TS 9.94286 129.100 1004 tokyo main 327 290 OOOO__________ jtwc_wp WP031995 9.80000 128.800 25 -1 10.2000 129.500 2 1004 0 0 0 10.2000 129.500 1 23 1004 10.0000 129.500 TD 25 1002 11 314
1995148N07150 1995 25 WP MM DEANNA 1995-06-01 03:00:00 TS 10.2692 128.610 main 290 255 PPPP__________ WP031995 9.99994 128.227 25 -1 10.5181 128.738 2 1003 0 0 10.5179 128.910 1 26 1003 10.3102 128.948 TD 25 1002 12 303
1995148N07150 1995 25 WP MM DEANNA 1995-06-01 06:00:00 TS 10.5692 128.115 1002 tokyo main 255 208 OOOO__________ jtwc_wp WP031995 10.2000 127.700 25 -1 10.8000 128.100 2 1002 0 0 0 10.8000 128.400 1 29 1002 10.6000 128.400 TD 25 1002 11 302
1995148N07150 1995 25 WP MM DEANNA 1995-06-01 09:00:00 TS 10.8304 127.702 main 208 163 PPPP__________ WP031995 10.4196 127.280 25 -1 11.0222 127.662 2 1002 0 0 11.0222 128.007 1 29 1002 10.8574 127.857 TD 25 1002 10 299
1995148N07150 1995 25 WP MM DEANNA 1995-06-01 12:00:00 TS 11.0500 127.250 1002 tokyo main 164 103 OOOO__________ jtwc_wp WP031995 10.7000 126.800 25 -1 11.2000 127.300 2 1002 0 0 0 11.2000 127.600 1 29 1002 11.1000 127.300 TD 25 1002 11 294
1995148N07150 1995 25 WP MM DEANNA 1995-06-01 15:00:00 TS 11.2818 126.686 main 103 55 PPPP__________ WP031995 11.0852 126.088 25 -1 11.3423 126.895 2 1002 0 0 11.3424 127.045 1 29 1002 11.3574 126.715 TD 25 1002 13 292
1995148N07150 1995 25 WP MM DEANNA 1995-06-01 18:00:00 TS 11.5250 126.050 1002 tokyo main 55 0 OOOO__________ jtwc_wp WP031995 11.5000 125.300 25 -1 11.5000 126.400 2 1002 0 0 0 11.5000 126.400 1 29 1002 11.6000 126.100 TD 25 1002 14 291
1995148N07150 1995 25 WP MM DEANNA 1995-06-01 21:00:00 TS 11.7724 125.381 main 0 0 PPPP__________ WP031995 11.8724 124.570 27 -1 11.7200 125.745 2 1002 0 0 11.7046 125.752 1 29 1002 11.7924 125.457 TD 25 1002 14 291
1995148N07150 1995 25 WP MM DEANNA 1995-06-02 00:00:00 TS 12.0500 124.675 1002 tokyo main 0 0 OOOO__________ jtwc_wp WP031995 12.2000 123.900 30 -1 12.0000 125.000 2 1002 0 0 0 12.0000 125.000 1 29 1002 12.0000 124.800 TD 25 1002 16 294
1995148N07150 1995 25 WP MM DEANNA 1995-06-02 03:00:00 TS 12.3932 123.926 main 24 11 PPPP__________ WP031995 12.4723 123.320 30 -1 12.3425 124.235 2 1002 0 0 12.4732 124.006 1 29 1002 12.2849 124.142 TD 27 1001 16 295
1995148N07150 1995 25 WP MM DEANNA 1995-06-02 06:00:00 TS 12.7250 123.225 1002 tokyo main 24 22 OOOO__________ jtwc_wp WP031995 12.7000 122.800 30 -1 12.7000 123.500 2 1002 0 0 0 12.9000 123.100 1 29 1002 12.6000 123.500 TD 30 1000 14 295
1995148N07150 1995 25 WP MM DEANNA 1995-06-02 09:00:00 TS 12.9704 122.662 main 22 15 PPPP__________ WP031995 12.9148 122.300 32 -1 13.0224 122.840 2 1001 0 0 13.0293 122.639 1 29 1001 12.9149 122.870 TD 30 1000 11 294
1995148N07150 1995 25 WP MM DEANNA 1995-06-02 12:00:00 TS 13.1750 122.175 1000 tokyo main 39 39 OOOO__________ jtwc_wp WP031995 13.1000 121.800 35 0 13.3000 122.300 2 1000 0 0 0 13.1000 122.300 1 29 1000 13.2000 122.300 TD 30 1000 10 293
1995148N07150 1995 25 WP MM DEANNA 1995-06-02 15:00:00 TS 13.3843 121.683 main 39 0 PPPP__________ WP031995 13.2575 121.242 37 0 13.5146 121.935 2 1000 0 0 13.3352 121.735 1 29 1000 13.4298 121.820 TD 30 1000 10 293
1995148N07150 1995 25 WP MM DEANNA 1995-06-02 18:00:00 TS 13.5750 121.225 1000 tokyo main 0 0 OOOO__________ jtwc_wp WP031995 13.4000 120.700 40 0 13.7000 121.600 2 1000 0 0 0 13.6000 121.200 1 29 1000 13.6000 121.400 TD 30 1000 9 293
1995148N07150 1995 25 WP MM DEANNA 1995-06-02 21:00:00 TS 13.7430 120.811 main 10 0 PPPP__________ WP031995 13.5574 120.220 42 0 13.9000 121.122 2 999 0 0 13.7996 120.900 1 31 999 13.7149 121.000 TD 32 997 9 292
1995148N07150 1995 25 WP MM DEANNA 1995-06-03 00:00:00 TS 13.9000 120.400 35 998 tokyo main 21 21 OOOO__________ jtwc_wp WP031995 13.7000 119.800 45 0 14.1000 120.600 3 35 998 0 9 60 60 0 14.0000 120.600 2 34 998 13.8000 120.600 TS 35 994 9 289
1995148N07150 1995 25 WP MM DEANNA 1995-06-03 03:00:00 TS 14.0476 119.917 main 75 70 PPPP__________ WP031995 13.7999 119.427 47 0 14.2926 120.070 3 35 998 0 9 70 70 14.2428 120.043 2 34 998 13.8551 120.127 TS 35 994 10 290
1995148N07150 1995 25 WP MM DEANNA 1995-06-03 06:00:00 TS 14.2250 119.475 35 998 tokyo main 93 93 OOOO__________ jtwc_wp WP031995 13.9000 119.100 50 0 14.5000 119.600 3 35 998 0 9 80 80 0 14.5000 119.500 2 34 998 14.0000 119.700 TS 35 994 8 299
1995148N07150 1995 25 WP MM DEANNA 1995-06-03 09:00:00 TS 14.4555 119.151 main 102 102 PPPP__________ WP031995 14.0125 118.785 50 0 14.7274 119.240 3 37 997 0 9 90 80 14.7348 119.182 2 36 996 14.3474 119.398 TS 37 992 8 315
1995148N07150 1995 25 WP MM DEANNA 1995-06-03 12:00:00 TS 14.7500 118.925 40 996 tokyo main 126 121 OOOO__________ jtwc_wp WP031995 14.2000 118.500 50 0 15.0000 119.000 3 40 996 0 4 100 80 0 15.0000 119.000 2 38 995 14.8000 119.200 TS 40 990 8 329
1995148N07150 1995 25 WP MM DEANNA 1995-06-03 15:00:00 TS 15.0968 118.752 main 122 120 PPPP__________ WP031995 14.4900 118.198 50 0 15.3199 118.855 3 40 996 0 4 100 80 15.3424 118.892 2 38 995 15.2350 119.062 TS 40 990 8 341
1995148N07150 1995 25 WP MM DEANNA 1995-06-03 18:00:00 TS 15.5000 118.650 40 996 tokyo main 120 118 OOOO__________ jtwc_wp WP031995 14.9000 118.000 50 0 15.7000 118.800 3 40 996 0 4 100 80 0 15.7000 118.800 2 38 995 15.7000 119.000 TS 40 990 8 348
1995148N07150 1995 25 WP MM DEANNA 1995-06-03 21:00:00 TS 15.9181 118.570 main 118 117 PPPP__________ WP031995 15.3974 117.960 47 0 16.1050 118.755 3 40 996 0 4 100 80 15.9776 118.593 2 38 995 16.1925 118.970 TS 40 990 9 356
1995148N07150 1995 25 WP MM DEANNA 1995-06-04 00:00:00 TS 16.4000 118.575 40 996 tokyo main 125 125 OOOO__________ jtwc_wp WP031995 16.0000 118.100 45 0 16.6000 118.800 3 40 996 0 4 100 80 0 16.3000 118.400 2 38 995 16.7000 119.000 TS 40 990 11 6
1995148N07150 1995 25 WP MM DEANNA 1995-06-04 03:00:00 TS 16.9931 118.687 main 140 140 PPPP__________ WP031995 16.6851 118.405 45 0 17.2651 118.992 3 40 997 0 4 100 80 16.7999 118.268 2 38 995 17.2225 119.085 TS 40 990 12 14
1995148N07150 1995 25 WP MM DEANNA 1995-06-04 06:00:00 TS 17.5750 118.875 40 998 tokyo main 148 131 OOOO__________ jtwc_wp WP031995 17.4000 118.800 45 0 17.9000 119.200 3 40 998 0 4 100 80 0 17.3000 118.300 2 38 995 17.7000 119.200 TS 40 990 11 21
1995148N07150 1995 25 WP MM DEANNA 1995-06-04 09:00:00 TS 18.0363 119.101 main 134 128 PPPP__________ WP031995 18.1025 119.172 45 0 18.3249 119.288 3 40 998 0 4 95 85 17.6228 118.635 2 38 995 18.0950 119.308 TS 37 992 9 26
1995148N07150 1995 25 WP MM DEANNA 1995-06-04 12:00:00 TS 18.4000 119.300 40 998 tokyo main 131 124 OOOO__________ jtwc_wp WP031995 18.7000 119.500 45 0 18.6000 119.300 3 40 998 0 9 90 90 0 17.9000 119.000 2 38 995 18.4000 119.400 TS 35 994 7 22
1995148N07150 1995 25 WP MM DEANNA 1995-06-04 15:00:00 TS 18.7093 119.393 main 130 130 PPPP__________ WP031995 19.1624 119.738 45 0 18.7875 119.265 3 40 998 0 9 90 90 18.2574 119.103 2 38 995 18.6300 119.465 TS 35 994 5 13
1995148N07150 1995 25 WP MM DEANNA 1995-06-04 18:00:00 TS 18.9250 119.425 40 998 tokyo main 138 133 OOOO__________ jtwc_wp WP031995 19.4000 119.900 45 0 18.9000 119.200 3 40 998 0 9 90 90 0 18.6000 119.100 2 38 995 18.8000 119.500 TS 35 994 4 11
1995148N07150 1995 25 WP MM DEANNA 1995-06-04 21:00:00 TS 19.0587 119.464 main 139 139 PPPP__________ WP031995 19.3599 120.068 45 0 19.0150 119.150 3 40 998 0 9 90 90 18.8950 119.115 2 38 995 18.9650 119.522 TS 35 994 2 8
1995148N07150 1995 25 WP MM DEANNA 1995-06-05 00:00:00 TS 19.1250 119.450 40 998 tokyo main 139 139 OOOO__________ jtwc_wp WP031995 19.2000 120.100 45 0 19.1000 119.100 3 40 998 0 9 90 90 0 19.1000 119.100 2 38 995 19.1000 119.500 TS 35 994 2 320
1995148N07150 1995 25 WP MM DEANNA 1995-06-05 03:00:00 TS 19.1832 119.351 main 154 154 PPPP__________ WP031995 19.1501 119.887 45 0 19.1650 119.043 3 40 998 0 9 90 90 19.1875 119.050 2 38 995 19.2300 119.423 TS 35 994 2 289
1995148N07150 1995 25 WP MM DEANNA 1995-06-05 06:00:00 TS 19.2000 119.225 40 998 tokyo main 172 172 OOOO__________ jtwc_wp WP031995 19.1000 119.600 45 0 19.2000 119.000 3 40 998 0 9 90 90 0 19.2000 119.000 2 38 995 19.3000 119.300 TS 35 994 2 269
1995148N07150 1995 25 WP MM DEANNA 1995-06-05 09:00:00 TS 19.1794 119.146 main 181 176 PPPP__________ WP031995 19.0075 119.428 42 0 19.2150 119.000 3 40 998 0 9 90 90 19.2150 119.000 2 38 995 19.2800 119.157 TS 35 994 2 243
1995148N07150 1995 25 WP MM DEANNA 1995-06-05 12:00:00 TS 19.1250 119.075 40 998 tokyo main 176 176 OOOO__________ jtwc_wp WP031995 18.9000 119.300 40 0 19.2000 119.000 3 40 998 0 9 90 90 0 19.2000 119.000 2 38 995 19.2000 119.000 TS 35 994 2 230
1995148N07150 1995 25 WP MM DEANNA 1995-06-05 15:00:00 TS 19.0556 118.989 main 185 181 PPPP__________ WP031995 18.8000 119.193 40 0 19.1575 118.957 3 40 998 0 9 90 90 19.1575 118.965 2 41 992 19.1075 118.842 TS 35 994 2 227
1995148N07150 1995 25 WP MM DEANNA 1995-06-05 18:00:00 TS 18.9750 118.900 40 998 tokyo main 191 187 OOOO__________ jtwc_wp WP031995 18.7000 119.100 40 0 19.1000 118.900 3 40 998 0 9 90 90 0 19.1000 118.900 2 44 990 19.0000 118.700 TS 35 994 2 225
1995148N07150 1995 25 WP MM DEANNA 1995-06-05 21:00:00 TS 18.8962 118.818 main 197 194 PPPP__________ WP031995 18.5925 119.015 40 0 19.0500 118.858 3 40 998 0 9 90 90 19.0500 118.800 2 44 990 18.8925 118.600 TS 35 994 2 228
1995148N07150 1995 25 WP MM DEANNA 1995-06-06 00:00:00 TS 18.8250 118.725 40 998 tokyo main 205 205 OOOO__________ jtwc_wp WP031995 18.5000 118.900 40 0 19.0000 118.800 3 40 998 0 9 90 90 0 19.0000 118.700 2 44 990 18.8000 118.500 TS 35 994 2 237
1995148N07150 1995 25 WP MM DEANNA 1995-06-06 03:00:00 TS 18.7675 118.613 main 215 211 PPPP__________ WP031995 18.4425 118.723 40 0 18.9500 118.715 3 40 998 0 9 90 90 18.9500 118.658 2 44 990 18.7275 118.357 TS 35 994 3 247
1995148N07150 1995 25 WP MM DEANNA 1995-06-06 06:00:00 TS 18.7250 118.475 40 998 tokyo main 221 221 OOOO__________ jtwc_wp WP031995 18.4000 118.500 40 0 18.9000 118.600 3 40 998 0 9 90 90 0 18.9000 118.600 2 44 990 18.7000 118.200 TS 35 994 3 253
1995148N07150 1995 25 WP MM DEANNA 1995-06-06 09:00:00 TS 18.6794 118.300 main 241 241 PPPP__________ WP031995 18.3200 118.250 40 0 18.8350 118.450 3 40 998 0 9 90 90 18.8350 118.457 2 44 990 18.7275 118.043 TS 35 994 3 261
1995148N07150 1995 25 WP MM DEANNA 1995-06-06 12:00:00 TS 18.6750 118.125 40 998 tokyo main 261 261 OOOO__________ jtwc_wp WP031995 18.3000 118.000 40 0 18.8000 118.300 3 40 998 0 9 90 90 0 18.8000 118.300 2 44 990 18.8000 117.900 TS 35 994 3 281
1995148N07150 1995 25 WP MM DEANNA 1995-06-06 15:00:00 TS 18.7362 117.985 main 272 272 PPPP__________ WP031995 18.4050 117.763 40 0 18.8275 118.193 3 40 998 0 9 90 90 18.8275 118.193 2 44 990 18.8850 117.792 TS 35 994 3 306
1995148N07150 1995 25 WP MM DEANNA 1995-06-06 18:00:00 TS 18.8500 117.875 40 998 tokyo main 288 285 OOOO__________ jtwc_wp WP031995 18.6000 117.600 40 0 18.9000 118.100 3 40 998 0 9 90 90 0 18.9000 118.100 2 44 990 19.0000 117.700 TS 35 994 3 321
1995148N07150 1995 25 WP MM DEANNA 1995-06-06 21:00:00 TS 18.9756 117.785 main 301 301 PPPP__________ WP031995 18.8275 117.555 40 0 18.9700 118.000 3 40 998 0 9 90 90 18.9700 118.000 2 44 990 19.1350 117.585 TS 35 994 3 335
1995148N07150 1995 25 WP MM DEANNA 1995-06-07 00:00:00 TS 19.1500 117.725 40 998 tokyo main 318 318 OOOO__________ jtwc_wp WP031995 19.1000 117.600 40 0 19.1000 117.900 3 40 998 0 9 90 90 0 19.1000 117.900 2 44 990 19.3000 117.500 TS 35 994 4 346
1995148N07150 1995 25 WP MM DEANNA 1995-06-07 03:00:00 TS 19.3888 117.678 main 324 324 PPPP__________ WP031995 19.3925 117.685 40 0 19.3275 117.778 3 40 998 0 9 90 90 19.3500 117.778 2 44 990 19.4850 117.470 TS 35 994 5 355
1995148N07150 1995 25 WP MM DEANNA 1995-06-07 06:00:00 TS 19.6500 117.675 40 998 tokyo main 337 337 OOOO__________ jtwc_wp WP031995 19.7000 117.800 40 0 19.6000 117.700 3 40 998 0 9 90 90 0 19.6000 117.700 2 44 990 19.7000 117.500 TS 35 994 5 4
1995148N07150 1995 25 WP MM DEANNA 1995-06-07 09:00:00 TS 19.8506 117.718 main 347 338 PPPP__________ WP031995 19.9925 117.893 40 0 19.8275 117.705 3 37 998 0 9 95 85 19.6550 117.705 2 44 990 19.9275 117.570 TS 35 994 5 17
1995148N07150 1995 25 WP MM DEANNA 1995-06-07 12:00:00 TS 20.1000 117.825 35 998 tokyo main 340 309 OOOO__________ jtwc_wp WP031995 20.3000 118.000 40 0 20.1000 117.800 3 35 998 0 3 100 80 0 19.8000 117.800 2 44 990 20.2000 117.700 TS 35 994 7 21
1995148N07150 1995 25 WP MM DEANNA 1995-06-07 15:00:00 TS 20.4768 117.977 main 309 281 PPPP__________ WP031995 20.6350 118.128 37 0 20.4624 117.955 3 35 998 0 3 100 80 20.2900 117.955 2 41 992 20.5200 117.870 TS 35 994 9 23
1995148N07150 1995 25 WP MM DEANNA 1995-06-07 18:00:00 TS 20.9250 118.200 35 998 tokyo main 281 229 OOOO__________ jtwc_wp WP031995 21.0000 118.300 35 0 20.9000 118.200 3 35 998 0 3 100 80 0 20.9000 118.200 2 38 995 20.9000 118.100 TS 35 994 10 28
1995148N07150 1995 25 WP MM DEANNA 1995-06-07 21:00:00 TS 21.3725 118.494 main 222 173 PPPP__________ WP031995 21.3851 118.542 35 0 21.3776 118.535 3 35 998 0 3 100 80 21.4076 118.535 2 36 996 21.3199 118.363 TS 32 995 11 32
1995148N07150 1995 25 WP MM DEANNA 1995-06-08 00:00:00 TS 21.8500 118.825 35 998 tokyo main 168 135 OOOO__________ jtwc_wp WP031995 21.8000 118.800 35 0 21.9000 118.900 3 35 998 0 3 100 80 0 21.9000 118.900 2 34 998 21.8000 118.700 TD 30 996 11 28
1995148N07150 1995 25 WP MM DEANNA 1995-06-08 03:00:00 TS 22.3580 119.062 main 121 79 PPPP__________ WP031995 22.2344 118.934 35 0 22.4488 119.104 3 998 0 3 22.3914 119.104 2 31 998 22.3573 119.105 TD 30 996 12 29
1995148N07150 1995 25 WP MM DEANNA 1995-06-08 06:00:00 TS 22.8733 119.440 998 tokyo main 75 0 OOOO__________ jtwc_wp WP031995 22.7000 119.200 35 0 23.0000 119.500 2 998 0 0 0 22.9000 119.500 1 29 998 22.9000 119.600 TD 30 996 15 46
1995148N07150 1995 25 WP MM DEANNA 1995-06-08 09:00:00 TS 23.3557 120.201 main 0 0 PPPP__________ WP031995 23.1929 119.825 35 0 23.4709 120.396 2 998 0 0 23.4134 120.395 1 29 998 23.3356 120.177 TD 30 996 19 57
1995148N07150 1995 25 WP MM DEANNA 1995-06-08 12:00:00 TS 23.8846 121.169 998 tokyo main 0 0 OOOO__________ jtwc_wp WP031995 23.7000 120.600 35 0 24.0000 121.500 2 998 0 0 0 24.0000 121.500 1 29 998 23.7000 120.800 TD 30 996 21 55
1995148N07150 1995 25 WP MM DEANNA 1995-06-08 15:00:00 TS 24.5557 122.076 main 23 23 PPP___________ WP031995 24.1609 121.228 35 0 24.7493 122.499 2 997 0 0 24.7568 122.500 1 29 997 TD 21 51
1995148N07150 1995 25 WP MM DEANNA 1995-06-08 18:00:00 ET 25.2333 123.000 996 tokyo main 103 103 OOO___________ jtwc_wp WP031995 24.7000 122.000 35 0 25.5000 123.500 6 996 0 0 0 25.5000 123.500 9 29 996 21 55
1995148N07150 1995 25 WP MM DEANNA 1995-06-08 21:00:00 ET 25.7696 123.974 main 219 219 PPP___________ WP031995 25.3888 123.059 35 0 25.9601 124.431 6 996 0 0 25.9601 124.431 9 29 996 23 59
1995148N07150 1995 25 WP MM DEANNA 1995-06-09 00:00:00 ET 26.4000 125.133 996 tokyo main 347 347 OOO___________ jtwc_wp WP031995 26.2000 124.400 35 0 26.5000 125.500 6 996 0 0 0 26.5000 125.500 9 29 996 29 56
1995148N07150 1995 25 WP MM DEANNA 1995-06-09 03:00:00 ET 27.3747 126.610 main 492 381 PPP___________ WP031995 27.1230 125.988 35 0 27.5006 126.920 6 996 0 0 27.5006 126.920 9 29 996 33 55
1995148N07150 1995 25 WP MM DEANNA 1995-06-09 06:00:00 ET 28.3182 128.209 996 tokyo main 376 257 OOO___________ jtwc_wp WP031995 28.0000 127.700 35 0 28.5000 128.500 6 996 0 0 0 28.5000 128.500 9 29 996 31 61
1995148N07150 1995 25 WP MM DEANNA 1995-06-09 09:00:00 ET 28.8820 129.663 main 253 184 PPP___________ WP031995 28.6461 129.208 35 0 28.9956 129.935 6 996 0 0 29.1268 130.027 9 29 996 29 68
1995148N07150 1995 25 WP MM DEANNA 1995-06-09 12:00:00 ET 29.3875 131.275 996 tokyo main 187 184 OOO___________ jtwc_wp WP031995 29.2000 130.900 35 0 29.5000 131.500 6 996 0 0 0 29.5000 131.500 9 29 996 34 67
1995148N07150 1995 25 WP MM DEANNA 1995-06-09 15:00:00 ET 30.2239 133.225 main 217 217 PP____________ WP031995 29.7575 133.050 35 0 30.4570 133.313 6 997 0 0 9 41 63
1995148N07150 1995 25 WP MM DEANNA 1995-06-09 18:00:00 ET 31.2600 135.500 998 tokyo main 235 197 OO____________ jtwc_wp WP031995 30.3000 135.500 35 0 31.5000 135.500 6 998 0 0 0 48 64
1995148N07150 1995 25 WP MM DEANNA 1995-06-09 21:00:00 ET 32.3301 138.212 main 250 221 _P____________ WP031995 -1 32.3301 138.212 6 998 0 0 50 69
1995148N07150 1995 25 WP MM DEANNA 1995-06-10 00:00:00 ET 33.0000 141.000 998 tokyo main 234 234 _O____________ -1 33.0000 141.000 6 998 0 0 0 44 73
1995148N07150 1995 25 WP MM DEANNA 1995-06-10 03:00:00 ET 33.5994 143.251 main 319 319 _P____________ -1 33.5994 143.251 6 997 0 0 39 75
1995148N07150 1995 25 WP MM DEANNA 1995-06-10 06:00:00 ET 34.0000 145.500 996 tokyo main 459 459 _O____________ -1 34.0000 145.500 6 996 0 0 0 41 84
1995148N07150 1995 25 WP MM DEANNA 1995-06-10 09:00:00 ET 34.0385 148.223 main 690 690 _P____________ -1 34.0385 148.223 6 996 0 0 46 90
1995148N07150 1995 25 WP MM DEANNA 1995-06-10 12:00:00 ET 34.0000 151.000 996 tokyo main 938 938 _O____________ -1 34.0000 151.000 6 996 0 0 0 45 88
1995148N07150 1995 25 WP MM DEANNA 1995-06-10 15:00:00 ET 34.2129 153.683 main 1175 1175 _P____________ -1 34.2129 153.683 6 996 0 0 42 83
1995148N07150 1995 25 WP MM DEANNA 1995-06-10 18:00:00 ET 34.5000 156.000 996 tokyo main 1324 1324 _O____________ -1 34.5000 156.000 6 996 0 0 0 32 81
1995148N07150 1995 25 WP MM DEANNA 1995-06-10 21:00:00 ET 34.7383 157.577 main 1383 1377 _P____________ -1 34.7383 157.577 6 995 0 0 25 79
1995148N07150 1995 25 WP MM DEANNA 1995-06-11 00:00:00 ET 35.0000 159.000 994 tokyo main 1415 1415 _O____________ -1 35.0000 159.000 6 994 0 0 0 28 80
1995148N07150 1995 25 WP MM DEANNA 1995-06-11 03:00:00 ET 35.2535 161.000 main 1487 1487 _P____________ -1 35.2535 161.000 6 994 0 0 33 81
1995148N07150 1995 25 WP MM DEANNA 1995-06-11 06:00:00 ET 35.5000 163.000 994 tokyo main 1577 1577 _O____________ -1 35.5000 163.000 6 994 0 0 0 29 81
1995148N07150 1995 25 WP MM DEANNA 1995-06-11 09:00:00 ET 35.7075 164.578 main 1653 1653 _P____________ -1 35.7075 164.578 6 994 0 0 25 78
1995148N07150 1995 25 WP MM DEANNA 1995-06-11 12:00:00 ET 36.0000 166.000 994 tokyo main 1715 1715 _O____________ -1 36.0000 166.000 6 994 0 0 0 24 73
1995148N07150 1995 25 WP MM DEANNA 1995-06-11 15:00:00 ET 36.4184 167.393 main 1774 1774 _P____________ -1 36.4184 167.393 6 993 0 0 26 67
1995148N07150 1995 25 WP MM DEANNA 1995-06-11 18:00:00 ET 37.0000 169.000 992 tokyo main 1799 1799 _O____________ -1 37.0000 169.000 6 992 0 0 0 32 67
1995148N07150 1995 25 WP MM DEANNA 1995-06-11 21:00:00 ET 37.6746 171.105 main 1836 1836 _P____________ -1 37.6746 171.105 6 992 0 0 39 67
1995148N07150 1995 25 WP MM DEANNA 1995-06-12 00:00:00 ET 38.5000 173.500 992 tokyo main 1891 1886 _O____________ -1 38.5000 173.500 6 992 0 0 0 43 66
1995148N07150 1995 25 WP MM DEANNA 1995-06-12 03:00:00 ET 39.4319 176.146 main 1882 1685 _P____________ -1 39.4319 176.146 6 991 0 0 43 63
1995148N07150 1995 25 WP MM DEANNA 1995-06-12 06:00:00 ET 40.5000 178.500 990 tokyo main 1671 1507 _O____________ -1 40.5000 178.500 6 990 0 0 0 37 52
1995148N07150 1995 25 EP CP DEANNA 1995-06-12 09:00:00 ET 41.7066 180.012 main 1493 1341 _P____________ -1 41.7066 -179.988 6 989 0 0 31 37
1995148N07150 1995 25 EP CP DEANNA 1995-06-12 12:00:00 ET 43.0000 181.000 main 1327 _O____________ -1 43.0000 181.000 6 988 0 0 0 30 29

デジタル台風データ・検索

IBTrACS Databaseについて

本データベースは、米国NOAAが公開する1842年以降の世界の熱帯低気圧のベストトラックデータアーカイブInternational Best Track Archive for Climate Stewardship (IBTrACS)を、ウェブで閲覧しやすい形式に変換したものです。

最終更新日:2021-11-26